Time;durP1;ratioP1;P1;durP2;ratioP2;P2;SDS_P1;SDS_P2;PMS_P1;PMS_P2;Temp;Humidity;BMP_temperature;BMP_pressure;BME280_temperature;BME280_humidity;BME280_pressure;Samples;Min_cycle;Max_cycle;Signal;HPM_P1;HPM_P2
2021/11/29 00:01:39;;;;;;;15.60;11.53;;;2.30;99.90;;;3.25;100.00;98424.88;5016256;28;20218;-64
2021/11/29 00:04:09;;;;;;;15.97;11.60;;;2.40;99.90;;;3.20;100.00;98428.19;5015987;28;20198;-63
2021/11/29 00:06:38;;;;;;;15.93;11.13;;;2.40;99.90;;;3.07;100.00;98430.13;5015909;28;20199;-63
2021/11/29 00:09:07;;;;;;;15.50;12.20;;;2.40;99.90;;;3.12;100.00;98438.28;5016000;28;20212;-63
2021/11/29 00:11:36;;;;;;;17.17;11.30;;;2.40;99.90;;;3.09;100.00;98423.56;5015929;28;20298;-63
2021/11/29 00:14:04;;;;;;;14.53;11.13;;;2.30;99.90;;;3.00;100.00;98439.97;5015999;28;20241;-62
2021/11/29 00:16:33;;;;;;;15.60;11.23;;;2.30;99.90;;;2.94;100.00;98443.50;5015569;28;20682;-63
2021/11/29 00:19:04;;;;;;;14.90;11.07;;;2.30;99.90;;;3.00;100.00;98440.81;5015996;28;20210;-63
2021/11/29 00:21:33;;;;;;;16.37;11.53;;;2.30;99.90;;;3.01;100.00;98445.09;5015648;28;20278;-63
2021/11/29 00:24:03;;;;;;;17.47;11.90;;;2.30;99.90;;;3.02;100.00;98449.41;5015489;28;20210;-64
2021/11/29 00:26:32;;;;;;;14.53;10.93;;;2.30;99.90;;;3.17;100.00;98457.06;5015674;28;20237;-63
2021/11/29 00:29:00;;;;;;;13.80;10.90;;;2.40;99.90;;;3.08;100.00;98458.38;5015055;28;20798;-63
2021/11/29 00:31:28;;;;;;;14.47;11.50;;;2.40;99.90;;;3.00;100.00;98453.28;5015438;28;20666;-63
2021/11/29 00:33:57;;;;;;;15.27;11.63;;;2.40;99.90;;;3.08;100.00;98453.06;5015444;28;20202;-65
2021/11/29 00:36:25;;;;;;;15.10;10.97;;;2.40;99.90;;;3.28;100.00;98457.19;5015355;28;20587;-63
2021/11/29 00:38:53;;;;;;;12.93;10.67;;;2.50;99.90;;;3.15;100.00;98461.78;5015561;28;20298;-63
2021/11/29 00:41:23;;;;;;;15.40;11.80;;;2.40;99.90;;;3.04;100.00;98457.16;5015451;28;20245;-63
2021/11/29 00:43:51;;;;;;;14.60;11.57;;;2.40;99.90;;;3.09;100.00;98466.13;5015246;28;20305;-64
2021/11/29 00:46:19;;;;;;;15.20;11.63;;;2.40;99.90;;;3.08;100.00;98461.81;5015298;28;20876;-63
2021/11/29 00:48:48;;;;;;;15.23;11.03;;;2.40;99.90;;;3.08;100.00;98455.72;5015259;28;20237;-63
2021/11/29 00:51:16;;;;;;;14.60;10.77;;;2.40;99.90;;;3.12;100.00;98460.38;5015046;28;20320;-63
2021/11/29 00:53:46;;;;;;;14.20;10.27;;;2.40;99.90;;;3.19;100.00;98458.50;5015098;28;20293;-63
2021/11/29 00:56:17;;;;;;;15.23;11.33;;;2.40;99.90;;;3.29;100.00;98469.47;5015231;28;20279;-63
2021/11/29 00:58:47;;;;;;;13.40;11.50;;;2.50;99.90;;;3.31;100.00;98472.75;5014747;28;20875;-62
2021/11/29 01:01:16;;;;;;;22.07;16.40;;;2.50;99.90;;;3.38;100.00;98468.16;5015019;28;20209;-64
2021/11/29 01:03:44;;;;;;;18.70;16.63;;;2.60;99.90;;;3.43;100.00;98464.88;5014967;28;20205;-63
2021/11/29 01:06:13;;;;;;;20.60;16.50;;;2.50;99.90;;;3.40;100.00;98470.66;5014366;28;20210;-64
2021/11/29 01:08:42;;;;;;;16.77;14.03;;;2.60;99.90;;;3.35;100.00;98470.44;5014669;28;20654;-64
2021/11/29 01:11:11;;;;;;;13.90;10.77;;;2.60;99.90;;;3.34;100.00;98467.00;5013713;28;20599;-64
2021/11/29 01:13:40;;;;;;;13.63;10.23;;;2.60;99.90;;;3.21;100.00;98466.25;5014511;28;20299;-64
2021/11/29 01:16:10;;;;;;;13.57;10.37;;;2.50;99.90;;;3.26;100.00;98477.06;5014800;28;20216;-64
2021/11/29 01:18:39;;;;;;;15.73;10.93;;;2.50;99.90;;;3.28;100.00;98473.16;5014598;28;20214;-63
2021/11/29 01:21:08;;;;;;;14.00;11.47;;;2.50;99.90;;;3.33;100.00;98483.19;5014249;28;20720;-63
2021/11/29 01:23:36;;;;;;;16.63;11.80;;;2.50;99.90;;;3.32;100.00;98477.03;5014556;28;20210;-63
2021/11/29 01:26:05;;;;;;;16.47;11.47;;;2.50;99.90;;;3.22;100.00;98470.53;5014561;28;20286;-64
2021/11/29 01:28:35;;;;;;;16.43;11.70;;;2.50;99.90;;;3.33;100.00;98475.97;5014426;28;20261;-63
2021/11/29 01:31:03;;;;;;;15.20;11.67;;;2.60;99.90;;;3.26;100.00;98469.09;5014226;28;20249;-65
2021/11/29 01:33:34;;;;;;;15.43;11.53;;;2.50;99.90;;;3.32;100.00;98478.88;5013932;28;20260;-64
2021/11/29 01:36:03;;;;;;;14.83;11.53;;;2.60;99.90;;;3.39;100.00;98487.63;5014266;28;20218;-65
2021/11/29 01:38:32;;;;;;;14.17;10.47;;;2.60;99.90;;;3.27;100.00;98492.00;5014098;28;20228;-64
2021/11/29 01:41:00;;;;;;;16.80;10.87;;;2.60;99.90;;;3.39;100.00;98495.59;5013729;28;20712;-64
2021/11/29 01:43:29;;;;;;;14.70;10.80;;;2.50;99.90;;;3.35;100.00;98495.22;5013544;28;20682;-64
2021/11/29 01:45:58;;;;;;;16.10;11.80;;;2.60;99.90;;;3.40;100.00;98500.72;5014162;28;20284;-65
2021/11/29 01:48:28;;;;;;;16.97;12.10;;;2.60;99.90;;;3.39;100.00;98499.09;5014559;28;20240;-64
2021/11/29 01:50:59;;;;;;;14.27;11.37;;;2.50;99.90;;;3.32;100.00;98500.97;5014636;28;20300;-64
2021/11/29 01:53:32;;;;;;;14.43;11.10;;;2.50;99.90;;;3.21;100.00;98503.50;5014382;28;20285;-64
2021/11/29 01:56:01;;;;;;;16.00;11.70;;;2.50;99.90;;;3.11;100.00;98495.97;5014014;28;20188;-63
2021/11/29 01:58:35;;;;;;;17.57;13.07;;;2.40;99.90;;;3.16;100.00;98495.34;5013795;28;20224;-64
2021/11/29 02:01:11;;;;;;;16.77;12.50;;;2.40;99.90;;;3.08;100.00;98498.25;5013910;28;20224;-63
2021/11/29 02:03:40;;;;;;;19.60;14.20;;;2.40;99.90;;;3.07;100.00;98488.63;5013488;28;20195;-64
2021/11/29 02:06:11;;;;;;;19.03;14.17;;;2.30;99.90;;;3.08;100.00;98488.41;5013665;28;20311;-64
2021/11/29 02:08:40;;;;;;;18.90;16.33;;;2.30;99.90;;;3.08;100.00;98498.25;5014027;28;20184;-64
2021/11/29 02:11:08;;;;;;;18.83;16.37;;;2.30;99.90;;;3.24;100.00;98495.09;5013662;28;20209;-64
2021/11/29 02:13:37;;;;;;;21.03;18.53;;;2.30;99.90;;;3.13;100.00;98501.09;5013351;28;20203;-64
2021/11/29 02:16:07;;;;;;;21.40;16.97;;;2.30;99.90;;;3.09;100.00;98497.22;5013512;28;20301;-63
2021/11/29 02:18:40;;;;;;;22.37;17.97;;;2.30;99.90;;;3.18;100.00;98509.25;5012487;28;20300;-63
2021/11/29 02:21:14;;;;;;;21.87;17.83;;;2.30;99.90;;;3.06;100.00;98509.09;5013615;28;20255;-63
2021/11/29 02:23:47;;;;;;;20.93;15.50;;;2.30;99.90;;;2.98;100.00;98506.69;5013470;28;20336;-64
2021/11/29 02:26:18;;;;;;;17.33;12.87;;;2.30;99.90;;;2.98;100.00;98506.69;5013250;28;20204;-63
2021/11/29 02:28:51;;;;;;;16.70;12.70;;;2.30;99.90;;;3.04;100.00;98505.03;5012927;28;20309;-63
2021/11/29 02:31:28;;;;;;;16.17;13.23;;;2.20;99.90;;;3.06;100.00;98508.28;5013168;28;20819;-64
2021/11/29 02:33:57;;;;;;;14.63;11.00;;;2.30;99.90;;;2.99;100.00;98505.69;5013170;28;20187;-64
2021/11/29 02:36:26;;;;;;;16.70;12.23;;;2.30;99.90;;;3.07;100.00;98508.09;5013136;28;20229;-64
2021/11/29 02:38:54;;;;;;;16.27;11.00;;;2.30;99.90;;;3.13;100.00;98501.09;5012867;28;20232;-64
2021/11/29 02:41:23;;;;;;;14.67;11.13;;;2.30;99.90;;;3.14;100.00;98505.38;5013071;28;20211;-64
2021/11/29 02:43:51;;;;;;;16.97;12.90;;;2.30;99.90;;;3.22;100.00;98513.09;5012743;28;20627;-63
2021/11/29 02:46:19;;;;;;;17.27;13.93;;;2.40;99.90;;;3.14;100.00;98508.03;5013105;28;20206;-64
2021/11/29 02:48:50;;;;;;;19.00;14.40;;;2.40;99.90;;;3.12;100.00;98515.41;5013157;28;20641;-64
2021/11/29 02:51:22;;;;;;;18.50;14.10;;;2.40;99.90;;;3.14;100.00;98510.69;5012668;28;20634;-64
2021/11/29 02:53:58;;;;;;;18.23;15.13;;;2.40;99.90;;;3.27;100.00;98513.28;5013064;28;20599;-63
2021/11/29 02:56:27;;;;;;;18.97;16.53;;;2.40;99.90;;;3.15;100.00;98520.28;5012991;28;20696;-63
2021/11/29 02:58:55;;;;;;;17.67;15.27;;;2.40;99.90;;;3.20;100.00;98512.50;5012508;28;20223;-63
2021/11/29 03:01:24;;;;;;;19.17;16.70;;;2.40;99.90;;;3.13;100.00;98520.50;5012617;28;20207;-62
2021/11/29 03:03:55;;;;;;;18.37;14.80;;;2.40;99.90;;;3.13;100.00;98514.41;5012894;28;20244;-63
2021/11/29 03:06:23;;;;;;;20.10;17.10;;;2.40;99.90;;;3.28;100.00;98512.25;5012760;28;20214;-62
2021/11/29 03:08:53;;;;;;;16.30;13.77;;;2.50;99.90;;;3.31;100.00;98515.31;5012746;28;20290;-64
2021/11/29 03:11:21;;;;;;;16.53;12.40;;;2.50;99.90;;;3.32;100.00;98511.63;5012726;28;20306;-63
2021/11/29 03:13:50;;;;;;;17.20;13.27;;;2.50;99.90;;;3.34;100.00;98525.53;5012612;28;20285;-63
2021/11/29 03:16:18;;;;;;;16.17;12.70;;;2.50;99.90;;;3.29;100.00;98508.56;5013051;28;20222;-63
2021/11/29 03:18:47;;;;;;;15.07;11.57;;;2.50;99.90;;;3.20;100.00;98509.84;5012586;28;20268;-64
2021/11/29 03:21:19;;;;;;;17.57;13.93;;;2.50;99.90;;;3.28;100.00;98520.25;5012382;28;20199;-64
2021/11/29 03:23:54;;;;;;;17.87;14.43;;;2.50;99.90;;;3.16;100.00;98516.63;5012418;28;20614;-63
2021/11/29 03:26:25;;;;;;;16.03;12.27;;;2.50;99.90;;;3.21;100.00;98517.63;5012390;28;20294;-65
2021/11/29 03:28:58;;;;;;;15.03;12.17;;;2.50;99.90;;;3.22;100.00;98518.41;5014027;28;20261;-63
2021/11/29 03:31:32;;;;;;;16.47;12.70;;;2.50;99.90;;;3.19;100.00;98521.53;5016706;28;20222;-62
2021/11/29 03:34:02;;;;;;;15.63;13.10;;;2.50;99.90;;;3.31;100.00;98517.16;5016465;28;20225;-63
2021/11/29 03:36:35;;;;;;;17.00;12.80;;;2.50;99.90;;;3.29;100.00;98513.88;5015953;28;20706;-62
2021/11/29 03:39:09;;;;;;;17.17;13.70;;;2.50;99.90;;;3.28;100.00;98521.03;5016372;28;20303;-63
2021/11/29 03:41:39;;;;;;;17.00;13.97;;;2.50;99.90;;;3.27;100.00;98522.09;5016397;28;20195;-64
2021/11/29 03:44:08;;;;;;;19.00;14.30;;;2.50;99.90;;;3.36;100.00;98522.66;5016242;28;20242;-63
2021/11/29 03:46:36;;;;;;;22.73;17.17;;;2.50;99.90;;;3.52;100.00;98527.44;5016683;28;20209;-63
2021/11/29 03:49:05;;;;;;;22.67;19.50;;;2.60;99.90;;;3.43;100.00;98523.44;5015949;28;20291;-64
2021/11/29 03:51:34;;;;;;;23.87;18.77;;;2.60;99.90;;;3.45;100.00;98524.81;5016201;28;20297;-63
2021/11/29 03:54:03;;;;;;;20.80;16.77;;;2.70;99.90;;;3.43;100.00;98534.06;5016223;28;20209;-63
2021/11/29 03:56:33;;;;;;;16.80;12.50;;;2.60;99.90;;;3.32;100.00;98532.06;5016182;28;20633;-63
2021/11/29 03:59:02;;;;;;;18.50;12.57;;;2.60;99.90;;;3.30;100.00;98531.47;5015985;28;20630;-64
2021/11/29 04:01:30;;;;;;;16.30;12.50;;;2.50;99.90;;;3.36;100.00;98536.78;5016004;28;20241;-63
2021/11/29 04:03:58;;;;;;;19.33;13.37;;;2.50;99.90;;;3.32;100.00;98529.41;5015878;28;20717;-64
2021/11/29 04:06:27;;;;;;;18.87;13.07;;;2.50;99.90;;;3.35;100.00;98527.16;5015923;28;20210;-63
2021/11/29 04:08:56;;;;;;;17.83;12.80;;;2.60;99.90;;;3.32;100.00;98535.56;5015981;28;20289;-64
2021/11/29 04:11:25;;;;;;;17.83;13.00;;;2.50;99.90;;;3.25;100.00;98531.28;5015930;28;20242;-63
2021/11/29 04:13:54;;;;;;;18.40;12.73;;;2.50;99.90;;;3.32;100.00;98537.41;5015979;28;20601;-63
2021/11/29 04:16:22;;;;;;;18.43;13.73;;;2.50;99.90;;;3.45;100.00;98534.69;5015952;28;20625;-63
2021/11/29 04:18:52;;;;;;;19.03;13.30;;;2.60;99.90;;;3.44;100.00;98538.34;5015971;28;20228;-63
2021/11/29 04:21:20;;;;;;;17.23;12.70;;;2.60;99.90;;;3.42;100.00;98537.75;5015562;28;20694;-63
2021/11/29 04:23:48;;;;;;;17.93;13.67;;;2.70;99.90;;;3.44;100.00;98541.84;5015363;28;20234;-64
2021/11/29 04:26:18;;;;;;;19.13;13.47;;;2.60;99.90;;;3.43;100.00;98534.06;5015375;28;20642;-62
2021/11/29 04:28:51;;;;;;;20.43;14.50;;;2.60;99.90;;;3.45;100.00;98538.13;5015101;28;20230;-63
2021/11/29 04:31:19;;;;;;;19.10;14.27;;;2.60;99.90;;;3.50;100.00;98540.97;5015424;28;20190;-65
2021/11/29 04:33:48;;;;;;;21.13;14.53;;;2.60;99.90;;;3.53;100.00;98539.75;5015682;28;20206;-64
2021/11/29 04:36:16;;;;;;;20.53;14.80;;;2.60;99.90;;;3.41;100.00;98546.78;5015533;28;20211;-64
2021/11/29 04:38:44;;;;;;;19.43;13.90;;;2.70;99.90;;;3.53;100.00;98550.38;5015406;28;20253;-63
2021/11/29 04:41:13;;;;;;;19.93;14.57;;;2.70;99.90;;;3.50;100.00;98551.63;5014522;28;20205;-64
2021/11/29 04:43:41;;;;;;;22.60;16.07;;;2.70;99.90;;;3.54;100.00;98549.34;5015252;28;20266;-64
2021/11/29 04:46:11;;;;;;;20.60;14.93;;;2.70;99.90;;;3.43;100.00;98550.84;5015586;28;20235;-64
2021/11/29 04:48:40;;;;;;;21.17;15.90;;;2.70;99.90;;;3.54;100.00;98557.34;5015337;28;20371;-65
2021/11/29 04:51:08;;;;;;;22.87;15.37;;;2.70;99.90;;;3.43;100.00;98558.03;5015133;28;20211;-63
2021/11/29 04:53:36;;;;;;;23.33;17.40;;;2.60;99.90;;;3.52;100.00;98554.88;5015277;28;20634;-63
2021/11/29 04:56:06;;;;;;;22.53;15.03;;;2.70;99.90;;;3.53;100.00;98555.72;5014974;28;20203;-65
2021/11/29 04:58:35;;;;;;;23.50;17.27;;;2.70;99.90;;;3.41;100.00;98554.75;5014965;28;20211;-64
2021/11/29 05:01:03;;;;;;;24.50;17.30;;;2.70;99.90;;;3.42;100.00;98562.53;5015440;28;20304;-64
2021/11/29 05:03:33;;;;;;;21.97;16.43;;;2.70;99.90;;;3.47;100.00;98562.69;5015381;28;20199;-64
2021/11/29 05:06:02;;;;;;;20.43;15.37;;;2.70;99.90;;;3.47;100.00;98560.03;5014681;28;20681;-63
2021/11/29 05:08:34;;;;;;;22.97;15.73;;;2.70;99.90;;;3.54;100.00;98562.66;5014733;28;20189;-63
2021/11/29 05:11:03;;;;;;;22.47;15.70;;;2.70;99.90;;;3.48;100.00;98566.97;5014618;28;20297;-63
2021/11/29 05:13:32;;;;;;;19.63;14.57;;;2.70;99.90;;;3.42;100.00;98569.69;5014356;28;20295;-65
2021/11/29 05:16:01;;;;;;;22.00;15.20;;;2.70;99.90;;;3.46;100.00;98574.38;5014700;28;20209;-64
2021/11/29 05:18:30;;;;;;;24.23;16.47;;;2.70;99.90;;;3.50;100.00;98582.75;5014456;28;20242;-63
2021/11/29 05:21:00;;;;;;;23.33;16.67;;;2.70;99.90;;;3.45;100.00;98579.94;5014308;28;20230;-64
2021/11/29 05:23:28;;;;;;;24.00;15.67;;;2.70;99.90;;;3.57;100.00;98580.84;5014668;28;20209;-63
2021/11/29 05:25:57;;;;;;;23.93;17.17;;;2.80;99.90;;;3.56;100.00;98579.22;5014572;28;20206;-64
2021/11/29 05:28:25;;;;;;;25.80;17.40;;;2.70;99.90;;;3.61;100.00;98585.56;5014292;28;20237;-64
2021/11/29 05:30:54;;;;;;;24.97;17.13;;;2.70;99.90;;;3.51;100.00;98587.88;5014683;28;20198;-64
2021/11/29 05:33:22;;;;;;;24.43;17.43;;;2.70;99.90;;;3.47;100.00;98586.66;5014355;28;20233;-63
2021/11/29 05:35:50;;;;;;;24.50;17.67;;;2.70;99.90;;;3.47;100.00;98597.28;5014422;28;20244;-64
2021/11/29 05:38:20;;;;;;;28.20;17.90;;;2.70;99.90;;;3.42;100.00;98594.47;5014117;28;20295;-64
2021/11/29 05:40:48;;;;;;;23.37;16.37;;;2.70;99.90;;;3.48;100.00;98595.47;5014261;28;20329;-64
2021/11/29 05:43:17;;;;;;;26.23;17.17;;;2.70;99.90;;;3.53;100.00;98600.97;5014114;28;20252;-64
2021/11/29 05:45:45;;;;;;;26.03;17.07;;;2.70;99.90;;;3.63;100.00;98603.97;5014236;28;20201;-63
2021/11/29 05:48:13;;;;;;;25.30;16.67;;;2.70;99.90;;;3.52;100.00;98602.78;5014146;28;20206;-63
2021/11/29 05:50:41;;;;;;;27.27;18.43;;;2.60;99.90;;;3.69;100.00;98605.75;5014285;28;20203;-64
2021/11/29 05:53:10;;;;;;;26.03;17.63;;;2.60;99.90;;;3.47;100.00;98613.25;5013730;28;20204;-63
2021/11/29 05:55:39;;;;;;;27.40;18.00;;;2.60;99.90;;;3.39;100.00;98616.19;5014136;28;20293;-64
2021/11/29 05:58:08;;;;;;;27.97;18.03;;;2.60;99.90;;;3.30;100.00;98619.28;5013821;28;20298;-65
2021/11/29 06:00:36;;;;;;;25.17;17.57;;;2.50;99.90;;;3.27;100.00;98617.03;5013700;28;20580;-63
2021/11/29 06:03:10;;;;;;;28.13;18.73;;;2.40;99.90;;;3.00;100.00;98620.81;5013906;28;20191;-64
2021/11/29 06:05:38;;;;;;;29.67;18.90;;;2.30;99.90;;;2.98;100.00;98630.84;5014141;28;20211;-64
2021/11/29 06:08:07;;;;;;;24.37;17.43;;;2.30;99.90;;;2.97;100.00;98630.03;5013903;28;20261;-63
2021/11/29 06:10:35;;;;;;;28.33;18.43;;;2.30;99.90;;;2.84;100.00;98630.06;5013761;28;20658;-64
2021/11/29 06:13:05;;;;;;;27.40;18.50;;;2.20;99.90;;;2.78;100.00;98630.91;5013303;28;20263;-64
2021/11/29 06:15:34;;;;;;;26.43;18.83;;;2.20;99.90;;;2.72;100.00;98633.56;5013840;28;20298;-64
2021/11/29 06:18:02;;;;;;;27.70;18.10;;;2.10;99.90;;;2.81;100.00;98642.97;5013382;28;20316;-63
2021/11/29 06:20:31;;;;;;;27.53;18.70;;;2.10;99.90;;;2.84;100.00;98639.91;5013695;28;20226;-63
2021/11/29 06:22:59;;;;;;;27.67;18.13;;;2.20;99.90;;;2.82;100.00;98640.09;5013348;28;20262;-63
2021/11/29 06:25:29;;;;;;;28.93;18.10;;;2.10;99.90;;;2.93;100.00;98643.94;5012973;28;20239;-64
2021/11/29 06:27:58;;;;;;;27.27;17.50;;;2.20;99.90;;;3.12;100.00;98649.22;5013326;28;20230;-64
2021/11/29 06:30:28;;;;;;;28.07;17.50;;;2.20;99.90;;;3.09;100.00;98651.50;5013279;28;20746;-63
2021/11/29 06:32:56;;;;;;;28.37;17.83;;;2.30;99.90;;;3.07;100.00;98645.56;5013351;28;20214;-66
2021/11/29 06:35:24;;;;;;;27.10;18.47;;;2.30;99.90;;;3.14;100.00;98646.34;5013145;28;20200;-64
2021/11/29 06:37:59;;;;;;;28.23;18.10;;;2.30;99.90;;;3.16;100.00;98655.75;5012858;28;20353;-63
2021/11/29 06:40:29;;;;;;;30.60;18.60;;;2.20;99.90;;;2.95;100.00;98663.19;5012219;28;20773;-63
2021/11/29 06:42:58;;;;;;;27.83;18.80;;;2.30;99.90;;;2.81;100.00;98664.25;5012650;28;20208;-65
2021/11/29 06:45:28;;;;;;;28.00;18.40;;;2.20;99.90;;;2.79;100.00;98667.09;5012606;28;20617;-63
2021/11/29 06:47:57;;;;;;;29.07;18.20;;;2.20;99.90;;;2.87;100.00;98672.22;5012229;28;20201;-64
2021/11/29 06:50:25;;;;;;;28.50;18.03;;;2.20;99.90;;;3.09;100.00;98675.44;5012525;28;20203;-65
2021/11/29 06:52:54;;;;;;;28.17;17.97;;;2.20;99.90;;;3.03;100.00;98681.56;5012584;28;20234;-63
2021/11/29 06:55:22;;;;;;;25.80;16.93;;;2.20;99.90;;;3.10;100.00;98682.38;5012925;28;20205;-63
2021/11/29 06:57:51;;;;;;;23.67;16.50;;;2.20;99.90;;;3.07;100.00;98688.94;5011683;28;20200;-64
2021/11/29 07:00:23;;;;;;;26.47;16.73;;;2.30;99.90;;;3.13;100.00;98687.28;5011389;28;20225;-64
2021/11/29 07:02:54;;;;;;;26.07;16.43;;;2.30;99.90;;;3.00;100.00;98688.13;5011433;28;20249;-63
2021/11/29 07:05:26;;;;;;;26.97;16.87;;;2.30;99.90;;;3.22;100.00;98694.84;5011726;28;20263;-65
2021/11/29 07:07:55;;;;;;;25.73;16.53;;;2.30;99.90;;;3.31;100.00;98688.25;5011502;28;20270;-64
2021/11/29 07:10:25;;;;;;;25.43;16.33;;;2.30;99.90;;;3.21;100.00;98687.88;5011470;28;20198;-65
2021/11/29 07:12:55;;;;;;;26.80;17.83;;;2.40;99.90;;;3.22;100.00;98696.66;5011452;28;20218;-64
2021/11/29 07:15:26;;;;;;;23.60;16.40;;;2.40;99.90;;;3.23;100.00;98698.31;5012440;28;20246;-64
2021/11/29 07:17:56;;;;;;;24.93;17.97;;;2.40;99.90;;;3.33;100.00;98704.03;5012895;28;20292;-64
2021/11/29 07:20:24;;;;;;;25.20;16.77;;;2.50;99.90;;;3.53;100.00;98712.75;5012705;28;20277;-63
2021/11/29 07:22:53;;;;;;;25.43;16.20;;;2.50;99.90;;;3.50;100.00;98713.97;5012190;28;20238;-64
2021/11/29 07:25:21;;;;;;;23.47;16.17;;;2.60;99.90;;;3.47;100.00;98713.56;5012786;28;20256;-63
2021/11/29 07:27:50;;;;;;;25.93;18.27;;;2.70;99.90;;;3.46;100.00;98718.09;5012070;28;20246;-64
2021/11/29 07:30:22;;;;;;;26.20;17.47;;;2.70;99.90;;;3.56;100.00;98720.31;5012811;28;20205;-64
2021/11/29 07:32:53;;;;;;;24.02;16.58;;;2.80;99.90;;;3.66;100.00;98718.84;5012344;28;20520;-64
2021/11/29 07:35:27;;;;;;;22.93;15.80;;;2.80;99.90;;;3.71;100.00;98723.53;5012294;28;20279;-64
2021/11/29 07:37:56;;;;;;;23.33;16.10;;;2.90;99.90;;;3.75;100.00;98727.41;5012692;28;20194;-64
2021/11/29 07:40:29;;;;;;;22.93;16.10;;;3.00;99.90;;;3.80;100.00;98727.59;5012194;28;20779;-64
2021/11/29 07:43:01;;;;;;;24.27;15.97;;;3.00;99.90;;;3.90;100.00;98738.59;5011891;28;20279;-63
2021/11/29 07:45:29;;;;;;;22.77;15.50;;;3.00;99.90;;;4.02;100.00;98736.91;5012377;28;20226;-62
2021/11/29 07:47:58;;;;;;;24.10;16.90;;;3.10;99.90;;;4.01;100.00;98740.59;5012156;28;20265;-64
2021/11/29 07:50:28;;;;;;;28.23;19.43;;;3.20;99.90;;;4.06;100.00;98742.63;5011665;28;20294;-64
2021/11/29 07:52:57;;;;;;;24.90;17.53;;;3.20;99.90;;;4.06;100.00;98742.63;5011528;28;20189;-62
2021/11/29 07:55:28;;;;;;;22.47;15.00;;;3.30;99.90;;;4.16;100.00;98748.31;5012474;28;20302;-67
2021/11/29 07:58:01;;;;;;;21.37;15.03;;;3.30;99.90;;;4.16;100.00;98749.09;5024068;28;20226;-67
2021/11/29 08:00:34;;;;;;;20.17;14.33;;;3.40;99.90;;;4.21;100.00;98748.50;5023476;28;20215;-68
2021/11/29 08:03:06;;;;;;;22.83;15.10;;;3.40;99.90;;;4.20;100.00;98750.34;5004015;28;20205;-65
2021/11/29 08:05:38;;;;;;;22.40;15.43;;;3.40;99.90;;;4.22;100.00;98756.28;5009707;28;20560;-65
2021/11/29 08:08:10;;;;;;;23.50;14.77;;;3.40;99.90;;;4.32;100.00;98759.28;5009346;28;20190;-65
2021/11/29 08:10:40;;;;;;;21.30;14.50;;;3.40;99.90;;;4.30;100.00;98766.66;5008980;28;20236;-65
2021/11/29 08:13:13;;;;;;;21.23;14.13;;;3.40;99.90;;;4.34;100.00;98767.06;5008224;28;20211;-65
2021/11/29 08:15:42;;;;;;;20.07;14.10;;;3.50;99.90;;;4.36;100.00;98779.16;5010145;28;20192;-67
2021/11/29 08:18:11;;;;;;;21.27;14.43;;;3.60;99.90;;;4.47;100.00;98777.63;5013152;28;20766;-65
2021/11/29 08:20:42;;;;;;;19.03;13.67;;;3.60;99.90;;;4.52;100.00;98777.81;5013138;28;20302;-66
2021/11/29 08:23:10;;;;;;;18.40;12.80;;;3.60;99.90;;;4.52;100.00;98781.31;5012961;28;20263;-65
2021/11/29 08:25:40;;;;;;;19.03;13.37;;;3.60;99.90;;;4.44;100.00;98786.06;5012463;28;20277;-66
2021/11/29 08:28:10;;;;;;;19.87;14.07;;;3.60;99.90;;;4.37;100.00;98788.78;5012507;28;20588;-62
2021/11/29 08:30:40;;;;;;;18.97;13.30;;;3.50;99.90;;;4.32;100.00;98783.28;5012699;28;20238;-60
2021/11/29 08:33:12;;;;;;;20.63;14.10;;;3.50;99.90;;;4.33;100.00;98797.44;5013015;28;20205;-61
2021/11/29 08:35:44;;;;;;;18.77;12.77;;;3.50;99.90;;;4.33;100.00;98795.56;5012574;28;20313;-61
2021/11/29 08:38:13;;;;;;;18.10;12.63;;;3.50;99.90;;;4.48;100.00;98795.28;5012053;28;20194;-63
2021/11/29 08:40:42;;;;;;;18.23;12.90;;;3.60;99.90;;;4.67;100.00;98791.66;5012463;28;20291;-61
2021/11/29 08:43:16;;;;;;;18.00;12.17;;;3.60;99.90;;;4.54;100.00;98799.75;5012443;28;20284;-66
2021/11/29 08:45:50;;;;;;;16.93;11.90;;;3.60;99.90;;;4.51;100.00;98794.84;5012710;28;20640;-66
2021/11/29 08:48:21;;;;;;;18.63;12.57;;;3.60;99.90;;;4.63;100.00;98801.13;5012727;28;20575;-67
2021/11/29 08:50:55;;;;;;;19.33;13.07;;;3.60;99.90;;;4.60;100.00;98805.03;5012213;28;20223;-67
2021/11/29 08:53:27;;;;;;;16.17;10.87;;;3.60;99.90;;;4.51;100.00;98809.00;5011418;28;20272;-67
2021/11/29 08:55:57;;;;;;;18.60;11.73;;;3.60;99.90;;;4.43;100.00;98819.91;5012697;28;20191;-69
2021/11/29 08:58:26;;;;;;;17.57;11.87;;;3.60;99.90;;;4.38;100.00;98805.59;5012327;28;20280;-66
2021/11/29 09:00:56;;;;;;;18.17;12.27;;;3.60;99.90;;;4.61;100.00;98817.34;5011793;28;20226;-66
2021/11/29 09:03:25;;;;;;;20.93;12.23;;;3.60;99.90;;;4.67;100.00;98807.66;5011326;28;20549;-68
2021/11/29 09:05:56;;;;;;;18.13;13.20;;;3.60;99.90;;;4.63;100.00;98814.47;5012300;28;20289;-65
2021/11/29 09:08:26;;;;;;;19.63;13.13;;;3.60;99.90;;;4.72;100.00;98807.81;5012052;28;20191;-67
2021/11/29 09:10:55;;;;;;;18.03;12.37;;;3.70;99.90;;;4.76;100.00;98815.19;5011938;28;20185;-69
2021/11/29 09:13:41;;;;;;;18.90;12.60;;;3.70;99.90;;;4.76;100.00;98812.53;5011689;28;20224;-66
2021/11/29 09:16:13;;;;;;;17.97;12.43;;;3.70;99.90;;;4.69;100.00;98814.41;5011759;28;20298;-68
2021/11/29 09:18:45;;;;;;;16.80;10.93;;;3.70;99.90;;;4.85;100.00;98808.56;5011519;28;20262;-68
2021/11/29 09:21:21;;;;;;;16.20;11.20;;;3.80;99.90;;;4.95;100.00;98818.75;5011389;28;20308;-68
2021/11/29 09:23:50;;;;;;;16.80;11.37;;;3.80;99.90;;;4.87;100.00;98809.16;5011536;28;20929;-68
2021/11/29 09:26:19;;;;;;;14.33;10.73;;;3.90;99.90;;;4.90;100.00;98814.06;5011172;28;20408;-69
2021/11/29 09:28:48;;;;;;;13.57;10.20;;;3.90;99.90;;;4.99;100.00;98823.44;5010589;28;20760;-67
2021/11/29 09:31:16;;;;;;;15.53;10.63;;;4.00;99.90;;;5.14;100.00;98824.97;5011397;28;20633;-66
2021/11/29 09:33:45;;;;;;;14.73;10.57;;;4.10;99.90;;;5.13;100.00;98826.00;5011791;28;20546;-62
2021/11/29 09:36:14;;;;;;;15.57;11.03;;;4.10;99.90;;;5.08;100.00;98825.84;5011284;28;20228;-68
2021/11/29 09:38:43;;;;;;;14.10;10.73;;;4.20;99.90;;;5.15;100.00;98829.28;5011233;28;20684;-69
2021/11/29 09:41:12;;;;;;;15.57;10.67;;;4.20;99.90;;;5.13;100.00;98836.66;5011368;28;20241;-69
2021/11/29 09:43:41;;;;;;;14.37;10.47;;;4.20;99.90;;;5.28;100.00;98831.81;5011375;28;20308;-68
2021/11/29 09:46:09;;;;;;;15.77;10.57;;;4.20;99.90;;;5.37;100.00;98825.19;5010739;28;20296;-68
2021/11/29 09:48:39;;;;;;;14.00;10.50;;;4.20;99.90;;;5.35;100.00;98832.59;5010686;28;20202;-69
2021/11/29 09:51:29;;;;;;;13.27;9.53;;;4.30;99.90;;;5.56;100.00;98840.22;5010394;28;20209;-63
2021/11/29 09:53:58;;;;;;;15.87;10.33;;;4.40;99.90;;;5.56;100.00;98837.53;5010608;28;20515;-61
2021/11/29 09:56:27;;;;;;;12.73;9.43;;;4.40;99.90;;;5.34;100.00;98846.97;5010796;28;20249;-62
2021/11/29 09:58:55;;;;;;;14.00;9.47;;;4.40;99.90;;;5.29;100.00;98841.47;5010633;28;20236;-62
2021/11/29 10:01:24;;;;;;;12.43;9.10;;;4.40;99.90;;;5.51;100.00;98845.41;5010387;28;20242;-64
2021/11/29 10:04:03;;;;;;;14.90;10.13;;;4.40;99.90;;;5.42;100.00;98842.19;5010496;28;20190;-66
2021/11/29 10:06:33;;;;;;;13.70;9.93;;;4.40;99.90;;;5.37;100.00;98839.34;5010486;28;20328;-66
2021/11/29 10:09:25;;;;;;;12.43;9.50;;;4.40;99.90;;;5.47;100.00;98846.84;5010491;28;20639;-73
2021/11/29 10:11:53;;;;;;;13.43;9.70;;;4.40;99.90;;;5.53;100.00;98852.13;5010132;28;20596;-63
2021/11/29 10:14:23;;;;;;;12.83;9.43;;;4.40;99.90;;;5.66;100.00;98852.03;5010332;28;20282;-65
2021/11/29 10:17:00;;;;;;;11.87;9.37;;;4.50;99.90;;;5.68;100.00;98849.94;5010292;28;20660;-66
2021/11/29 10:19:35;;;;;;;11.73;9.20;;;4.60;99.90;;;5.56;100.00;98853.56;5010741;28;20264;-66
2021/11/29 10:22:19;;;;;;;12.93;9.73;;;4.60;99.90;;;5.59;100.00;98856.63;5010581;28;20300;-66
2021/11/29 10:24:50;;;;;;;14.10;10.20;;;4.60;99.90;;;5.51;100.00;98856.91;5010396;28;20244;-65